createdAt,value
2017-05-26T00:00:18.128Z,-9.25
2017-05-26T00:01:13.147Z,-9.25
2017-05-26T00:02:12.633Z,-9.25
2017-05-26T00:03:13.641Z,-9.25
2017-05-26T00:04:08.108Z,-4.70
2017-05-26T00:05:02.633Z,-4.69
2017-05-26T00:05:57.127Z,-4.69
2017-05-26T00:06:56.669Z,-9.25
2017-05-26T00:07:51.655Z,-9.25
2017-05-26T00:08:51.261Z,-9.25
2017-05-26T00:09:52.140Z,-9.25
2017-05-26T00:10:46.627Z,-4.69
2017-05-26T00:11:41.311Z,-4.69
2017-05-26T00:12:35.648Z,-9.25
2017-05-26T00:13:35.173Z,-9.25
2017-05-26T00:14:30.136Z,-9.25
2017-05-26T00:15:29.632Z,-9.25
2017-05-26T00:16:30.646Z,-9.25
2017-05-26T00:17:25.144Z,-9.25
2017-05-26T00:18:19.689Z,-9.25
2017-05-26T00:19:14.206Z,-9.25
2017-05-26T00:20:13.754Z,-9.25
2017-05-26T00:21:07.671Z,-4.69
2017-05-26T00:22:08.616Z,-85.54
2017-05-26T00:23:02.166Z,-9.25
2017-05-26T00:23:57.148Z,-4.69
2017-05-26T00:24:56.680Z,-9.25
2017-05-26T00:25:50.740Z,-4.69
2017-05-26T00:26:44.551Z,-4.69
2017-05-26T00:27:44.544Z,-4.69
2017-05-26T00:28:38.524Z,-4.69
2017-05-26T00:29:38.422Z,-4.69
2017-05-26T00:30:27.393Z,-4.69
2017-05-26T00:31:21.931Z,-4.69
2017-05-26T00:32:21.806Z,-4.69
2017-05-26T00:33:22.390Z,-4.69
2017-05-26T00:34:16.893Z,-4.69
2017-05-26T00:35:11.434Z,-4.69
2017-05-26T00:36:10.944Z,-4.69
2017-05-26T00:37:05.009Z,-4.69
2017-05-26T00:38:04.884Z,-85.54
2017-05-26T00:38:58.797Z,-88.69
2017-05-26T00:39:58.840Z,-4.89
2017-05-26T00:40:47.749Z,-85.54
2017-05-26T00:41:42.327Z,-4.69
2017-05-26T00:42:41.839Z,-4.69
2017-05-26T00:43:41.730Z,-4.69
2017-05-26T00:44:36.697Z,-4.69
2017-05-26T00:45:42.195Z,-4.69
2017-05-26T00:46:36.170Z,-4.69
2017-05-26T00:47:31.152Z,-4.69
2017-05-26T00:48:30.641Z,-4.69
2017-05-26T00:49:30.628Z,-4.69
2017-05-26T00:50:30.564Z,-4.69
2017-05-26T00:51:19.542Z,-4.69
2017-05-26T00:52:25.014Z,-4.69
2017-05-26T00:53:25.029Z,-4.69
2017-05-26T00:54:19.020Z,-4.69
2017-05-26T00:55:07.934Z,-4.69
2017-05-26T00:56:02.460Z,-4.69
2017-05-26T00:57:01.989Z,-4.69
2017-05-26T00:58:02.941Z,-4.69
2017-05-26T00:58:57.463Z,-4.69
2017-05-26T00:59:52.338Z,-4.69
2017-05-26T01:00:46.523Z,-4.69
2017-05-26T01:01:46.092Z,-4.69
2017-05-26T01:02:41.010Z,-9.25
2017-05-26T01:03:40.539Z,-4.69
2017-05-26T01:04:34.464Z,-4.69
2017-05-26T01:05:29.474Z,-4.69
2017-05-26T01:06:28.955Z,-4.69
2017-05-26T01:07:23.930Z,-4.69
2017-05-26T01:08:23.443Z,-4.69
2017-05-26T01:09:17.400Z,-4.69
2017-05-26T01:10:11.342Z,-4.69
2017-05-26T01:11:06.393Z,-4.69
2017-05-26T01:12:00.818Z,-4.69
2017-05-26T01:12:55.690Z,-4.69
2017-05-26T01:13:54.919Z,-88.69
2017-05-26T01:14:48.840Z,-85.54
2017-05-26T01:15:48.778Z,-4.89
2017-05-26T01:16:42.956Z,-4.69
2017-05-26T01:17:48.734Z,-88.69
2017-05-26T01:18:42.661Z,-4.69
2017-05-26T01:19:48.611Z,-4.69
2017-05-26T01:20:43.613Z,-4.69
2017-05-26T01:21:43.494Z,-4.69
2017-05-26T01:22:38.075Z,-4.69
2017-05-26T01:23:32.630Z,-4.69
2017-05-26T01:24:32.142Z,-4.69
2017-05-26T01:25:32.308Z,-4.69
2017-05-26T01:26:27.030Z,-4.69
2017-05-26T01:27:26.815Z,-4.69
2017-05-26T01:28:20.562Z,-4.69
2017-05-26T01:29:20.441Z,-4.69
2017-05-26T01:30:14.444Z,-4.69
2017-05-26T01:31:14.341Z,-4.69
2017-05-26T01:32:09.324Z,-4.69
2017-05-26T01:33:09.237Z,-4.69
2017-05-26T01:34:03.823Z,-85.54
2017-05-26T01:34:58.472Z,-4.69
2017-05-26T01:35:57.891Z,-85.54
2017-05-26T01:36:51.969Z,-4.69
2017-05-26T01:37:47.039Z,-4.69
2017-05-26T01:38:46.394Z,-4.69
2017-05-26T01:39:41.289Z,-4.69
2017-05-26T01:40:40.826Z,-4.69
2017-05-26T01:41:42.109Z,-4.69
2017-05-26T01:42:36.243Z,-4.69
2017-05-26T01:43:30.787Z,-88.69
2017-05-26T01:44:25.361Z,-4.69
2017-05-26T01:45:25.913Z,-4.69
2017-05-26T01:46:31.362Z,-4.69
2017-05-26T01:47:25.555Z,-4.69
2017-05-26T01:48:20.291Z,-4.69
2017-05-26T01:49:14.835Z,-4.69
2017-05-26T01:50:09.326Z,-4.69
2017-05-26T01:51:03.833Z,-4.69
2017-05-26T01:52:03.439Z,-4.69
2017-05-26T01:52:58.693Z,-4.69
2017-05-26T01:53:57.959Z,-4.69
2017-05-26T01:54:57.832Z,-4.69
2017-05-26T01:55:52.767Z,-4.69
2017-05-26T01:56:58.297Z,-4.69
2017-05-26T01:57:53.230Z,-4.69
2017-05-26T01:58:52.724Z,-4.69
2017-05-26T01:59:53.715Z,-4.69
2017-05-26T02:00:53.212Z,-4.69
2017-05-26T02:01:48.186Z,-4.69
2017-05-26T02:02:47.732Z,-4.69
2017-05-26T02:03:47.700Z,-4.69
2017-05-26T02:04:42.677Z,-4.69
2017-05-26T02:05:37.166Z,-4.69
2017-05-26T02:06:31.718Z,-4.69
2017-05-26T02:07:31.214Z,-4.69
2017-05-26T02:08:31.153Z,-4.69
2017-05-26T02:09:26.393Z,-4.69
2017-05-26T02:10:25.625Z,-4.69
2017-05-26T02:11:19.700Z,-4.69
2017-05-26T02:12:20.574Z,-4.69
2017-05-26T02:13:14.122Z,-4.69
2017-05-26T02:14:15.038Z,-4.69
2017-05-26T02:15:20.598Z,-4.69
2017-05-26T02:16:14.534Z,-4.69
2017-05-26T02:17:09.429Z,-4.69
2017-05-26T02:18:04.001Z,-4.69
2017-05-26T02:18:58.529Z,-4.69
2017-05-26T02:19:53.051Z,-4.69
2017-05-26T02:20:52.605Z,-4.69
2017-05-26T02:21:47.597Z,-4.69
2017-05-26T02:22:47.063Z,-4.69
2017-05-26T02:23:48.013Z,-4.69
2017-05-26T02:24:42.539Z,-4.69
2017-05-26T02:25:37.053Z,-4.69
2017-05-26T02:26:31.812Z,-88.69
2017-05-26T02:27:32.190Z,-4.69
2017-05-26T02:28:26.642Z,-4.69
2017-05-26T02:29:26.148Z,-4.89
2017-05-26T02:30:27.108Z,-4.69
2017-05-26T02:31:26.641Z,-4.69
2017-05-26T02:32:20.607Z,-4.89
2017-05-26T02:33:20.522Z,-4.74
2017-05-26T02:34:14.544Z,-4.69
2017-05-26T02:35:09.447Z,-4.69
2017-05-26T02:36:04.009Z,-4.69
2017-05-26T02:36:58.508Z,-4.69
2017-05-26T02:37:58.071Z,-4.69
2017-05-26T02:38:52.040Z,-4.69
2017-05-26T02:39:52.969Z,-4.69
2017-05-26T02:40:46.464Z,-4.69
2017-05-26T02:41:47.404Z,-4.69
2017-05-26T02:42:52.933Z,-85.54
2017-05-26T02:43:52.967Z,-4.69
2017-05-26T02:44:53.862Z,-4.69
2017-05-26T02:45:53.366Z,-4.69
2017-05-26T02:46:47.335Z,-4.69
2017-05-26T02:47:47.339Z,-4.69
2017-05-26T02:48:42.220Z,-4.69
2017-05-26T02:49:42.131Z,-4.69
2017-05-26T02:50:36.690Z,-4.69
2017-05-26T02:51:36.269Z,-4.69
2017-05-26T02:52:36.210Z,-4.69
2017-05-26T02:53:30.150Z,-85.54
2017-05-26T02:54:24.146Z,-88.69
2017-05-26T02:55:18.099Z,-4.69
2017-05-26T02:56:12.292Z,-4.69
2017-05-26T02:57:07.037Z,-4.69
2017-05-26T02:58:06.535Z,-88.69
2017-05-26T02:59:00.503Z,-88.69
2017-05-26T03:00:00.433Z,-4.89
2017-05-26T03:00:54.468Z,-88.69
2017-05-26T03:01:49.379Z,-4.69
2017-05-26T03:02:48.863Z,-4.89
2017-05-26T03:03:48.828Z,-4.69
2017-05-26T03:04:42.753Z,-4.69
2017-05-26T03:05:37.775Z,-4.69
2017-05-26T03:06:32.321Z,-4.69
2017-05-26T03:07:27.218Z,-4.69
2017-05-26T03:08:21.424Z,-4.69
2017-05-26T03:09:21.871Z,-4.69
2017-05-26T03:10:16.355Z,-4.69
2017-05-26T03:11:15.936Z,-4.69
2017-05-26T03:12:15.849Z,-4.69
2017-05-26T03:13:09.836Z,-4.69
2017-05-26T03:14:15.724Z,-85.54
2017-05-26T03:15:09.718Z,-85.54
2017-05-26T03:16:09.677Z,-4.69
2017-05-26T03:17:09.664Z,-4.69
2017-05-26T03:18:15.650Z,-4.89
2017-05-26T03:19:10.534Z,-85.54
2017-05-26T03:20:05.043Z,-4.69
2017-05-26T03:21:04.616Z,-4.69
2017-05-26T03:21:58.568Z,-4.69
2017-05-26T03:22:59.551Z,-4.69
2017-05-26T03:23:53.037Z,-4.69
2017-05-26T03:24:54.008Z,-4.69
2017-05-26T03:25:59.493Z,-4.69
2017-05-26T03:26:53.448Z,-4.69
2017-05-26T03:27:48.412Z,-4.89
2017-05-26T03:28:42.975Z,-4.89
2017-05-26T03:29:37.463Z,-4.69
2017-05-26T03:30:32.000Z,-4.69
2017-05-26T03:31:31.552Z,-4.69
2017-05-26T03:32:26.834Z,-4.69
2017-05-26T03:33:26.047Z,-4.69
2017-05-26T03:34:19.958Z,-4.69
2017-05-26T03:35:14.023Z,-85.54
2017-05-26T03:36:07.870Z,-85.54
2017-05-26T03:37:02.867Z,-85.54
2017-05-26T03:38:02.486Z,-4.69
2017-05-26T03:38:56.428Z,-4.69
2017-05-26T03:39:50.308Z,-4.69
2017-05-26T03:40:44.284Z,-85.54
2017-05-26T03:41:44.212Z,-4.69
2017-05-26T03:42:38.217Z,-85.54
2017-05-26T03:43:32.491Z,-85.54
2017-05-26T03:44:27.122Z,-85.54
2017-05-26T03:45:26.629Z,-4.89
2017-05-26T03:46:21.591Z,-4.69
2017-05-26T03:47:21.234Z,-4.69
2017-05-26T03:48:10.049Z,-4.69
2017-05-26T03:49:09.586Z,-4.69
2017-05-26T03:50:03.557Z,-4.69
2017-05-26T03:50:57.517Z,-4.69
2017-05-26T03:51:52.526Z,-4.69
2017-05-26T03:52:47.034Z,-4.69
2017-05-26T03:53:41.545Z,-4.69
2017-05-26T03:54:41.027Z,-4.69
2017-05-26T03:55:34.984Z,-4.69
2017-05-26T03:56:35.951Z,-88.69
2017-05-26T03:57:36.485Z,-88.69
2017-05-26T03:58:30.959Z,-4.69
2017-05-26T03:59:25.488Z,-4.69
2017-05-26T04:00:25.031Z,-4.69
2017-05-26T04:01:18.987Z,-4.69
2017-05-26T04:02:12.955Z,-4.69
2017-05-26T04:03:12.910Z,-85.54
2017-05-26T04:04:12.846Z,-85.54
2017-05-26T04:05:01.834Z,-4.69
2017-05-26T04:05:56.438Z,-4.69
2017-05-26T04:06:55.868Z,-4.69
2017-05-26T04:07:49.844Z,-4.69
2017-05-26T04:08:44.863Z,-4.69
2017-05-26T04:09:44.317Z,-4.89
2017-05-26T04:10:39.284Z,-85.54
2017-05-26T04:11:38.801Z,-4.69
2017-05-26T04:12:32.756Z,-4.89
2017-05-26T04:13:27.699Z,-4.69
2017-05-26T04:14:27.223Z,-4.89
2017-05-26T04:15:21.376Z,-4.69
2017-05-26T04:16:22.219Z,-85.54
2017-05-26T04:17:15.635Z,-85.54
2017-05-26T04:18:10.626Z,-4.69
2017-05-26T04:19:10.163Z,-4.69
2017-05-26T04:20:05.118Z,-4.69
2017-05-26T04:21:10.634Z,-4.69
2017-05-26T04:22:04.601Z,-4.89
2017-05-26T04:22:59.539Z,-85.54
2017-05-26T04:23:59.044Z,-85.54
2017-05-26T04:24:48.043Z,-85.54
2017-05-26T04:25:47.648Z,-4.69
2017-05-26T04:26:36.520Z,-4.69
2017-05-26T04:27:36.052Z,-4.69
2017-05-26T04:28:37.019Z,-85.54
2017-05-26T04:29:31.534Z,-4.69
2017-05-26T04:30:26.022Z,-4.69
2017-05-26T04:31:20.574Z,-4.69
2017-05-26T04:32:20.147Z,-4.69
2017-05-26T04:33:15.041Z,-4.69
2017-05-26T04:34:14.577Z,-4.69
2017-05-26T04:34:57.547Z,-4.69
2017-05-26T04:35:45.080Z,-4.69
2017-05-26T04:36:28.046Z,-4.69
2017-05-26T04:37:15.569Z,-4.69
2017-05-26T04:38:10.544Z,-4.69
2017-05-26T04:38:58.041Z,-4.69
2017-05-26T04:39:41.056Z,-85.54
2017-05-26T04:40:28.547Z,-85.54
2017-05-26T04:41:11.532Z,-4.89
2017-05-26T04:41:59.416Z,-4.69
2017-05-26T04:42:48.081Z,-4.69
2017-05-26T04:43:35.592Z,-85.54
2017-05-26T04:44:23.572Z,-85.54
2017-05-26T04:45:23.517Z,-85.54
2017-05-26T04:46:18.435Z,-85.54
2017-05-26T04:47:18.021Z,-85.54
2017-05-26T04:48:11.963Z,-85.54
2017-05-26T04:49:12.234Z,-85.54
2017-05-26T04:50:06.853Z,-85.54
2017-05-26T04:51:06.418Z,-85.54
2017-05-26T04:52:06.685Z,-85.54
2017-05-26T04:53:01.406Z,-85.54
2017-05-26T04:54:00.843Z,-85.54
2017-05-26T04:54:49.845Z,-85.54
2017-05-26T04:55:43.345Z,-85.54
2017-05-26T04:56:32.317Z,-85.54
2017-05-26T04:57:32.191Z,-85.54
2017-05-26T04:58:32.144Z,-85.54
2017-05-26T04:59:27.070Z,-85.54
2017-05-26T05:00:21.586Z,-85.54
2017-05-26T05:01:21.078Z,-85.54
2017-05-26T05:02:15.059Z,-85.54
2017-05-26T05:03:15.977Z,-85.54
2017-05-26T05:04:15.561Z,-85.54
2017-05-26T05:05:10.556Z,-88.69
2017-05-26T05:06:16.060Z,-85.54
2017-05-26T05:07:09.999Z,-85.54
2017-05-26T05:08:09.711Z,-85.54
2017-05-26T05:08:58.641Z,-85.54
2017-05-26T05:09:53.253Z,-85.54
2017-05-26T05:10:47.803Z,-85.54
2017-05-26T05:11:47.230Z,-85.54
2017-05-26T05:12:36.252Z,-85.54
2017-05-26T05:13:35.930Z,-85.54
2017-05-26T05:14:18.737Z,-85.54
2017-05-26T05:15:13.385Z,-85.54
2017-05-26T05:16:07.784Z,-85.54
2017-05-26T05:17:08.397Z,-85.54
2017-05-26T05:18:03.106Z,-85.54
2017-05-26T05:18:57.520Z,-85.54
2017-05-26T05:19:45.933Z,-85.54
2017-05-26T05:20:39.537Z,-85.54
2017-05-26T05:21:27.435Z,-85.54
2017-05-26T05:22:15.461Z,-85.54
2017-05-26T05:23:10.423Z,-4.89
2017-05-26T05:24:05.237Z,-85.54
2017-05-26T05:24:58.804Z,-85.54
2017-05-26T05:25:53.434Z,-85.54
2017-05-26T05:26:41.288Z,-85.54
2017-05-26T05:27:29.336Z,-85.54
2017-05-26T05:28:16.968Z,-85.54
2017-05-26T05:29:17.871Z,-85.54
2017-05-26T05:30:05.439Z,-4.89
2017-05-26T05:30:54.456Z,-85.54
2017-05-26T05:31:48.937Z,-85.54
2017-05-26T05:32:43.449Z,-85.54
2017-05-26T05:33:32.273Z,-85.54
2017-05-26T05:34:31.641Z,-85.54
2017-05-26T05:35:31.545Z,-4.89
2017-05-26T05:36:19.531Z,-88.69
2017-05-26T05:37:19.663Z,-4.89
2017-05-26T05:38:19.535Z,-85.54
2017-05-26T05:39:13.611Z,-88.69
2017-05-26T05:40:07.684Z,-85.54
2017-05-26T05:40:55.673Z,-85.54
2017-05-26T05:41:49.668Z,-85.54
2017-05-26T05:42:38.605Z,-85.54
2017-05-26T05:43:33.074Z,-85.54
2017-05-26T05:44:27.710Z,-85.54
2017-05-26T05:45:27.172Z,-85.54
2017-05-26T05:46:21.200Z,-85.54
2017-05-26T05:47:16.458Z,-85.54
2017-05-26T05:48:04.707Z,-85.54
2017-05-26T05:48:59.262Z,-85.54
2017-05-26T05:49:58.455Z,-85.54
2017-05-26T05:50:58.738Z,-85.54
2017-05-26T05:51:52.410Z,-4.89
2017-05-26T05:52:41.655Z,-85.54
2017-05-26T05:53:36.281Z,-85.54
2017-05-26T05:54:24.467Z,-85.54
2017-05-26T05:55:19.322Z,-85.54
2017-05-26T05:56:12.650Z,-85.54
2017-05-26T05:57:06.724Z,-85.54
2017-05-26T05:58:06.934Z,-4.89
2017-05-26T05:59:00.459Z,-85.54
2017-05-26T06:00:00.427Z,-85.54
2017-05-26T06:00:54.416Z,-85.54
2017-05-26T06:01:54.382Z,-85.54
2017-05-26T06:02:49.375Z,-85.54
2017-05-26T06:03:55.280Z,-88.69
2017-05-26T06:04:50.156Z,-85.54
2017-05-26T06:05:44.341Z,-85.54
2017-05-26T06:06:37.940Z,-85.54
2017-05-26T06:07:26.235Z,-85.54
2017-05-26T06:08:21.190Z,-85.54
2017-05-26T06:09:15.756Z,-88.69
2017-05-26T06:10:09.357Z,-85.54
2017-05-26T06:11:09.222Z,-85.54
2017-05-26T06:12:03.215Z,-4.69
2017-05-26T06:12:51.206Z,-4.89
2017-05-26T06:13:39.162Z,-4.89
2017-05-26T06:14:40.141Z,-88.69
2017-05-26T06:15:28.689Z,-85.54
2017-05-26T06:16:17.261Z,-4.69
2017-05-26T06:17:16.790Z,-4.89
2017-05-26T06:18:11.733Z,-4.89
2017-05-26T06:19:06.237Z,-85.54
2017-05-26T06:20:05.759Z,-85.54
2017-05-26T06:20:53.805Z,-85.54
2017-05-26T06:21:53.770Z,-4.69
2017-05-26T06:22:47.747Z,-85.54
2017-05-26T06:23:41.709Z,-85.54
2017-05-26T06:24:24.734Z,-88.69
2017-05-26T06:25:18.217Z,-4.69
2017-05-26T06:26:07.229Z,-4.69
2017-05-26T06:26:55.716Z,-4.69
2017-05-26T06:27:43.323Z,-4.69
2017-05-26T06:28:31.295Z,-4.69
2017-05-26T06:29:20.246Z,-4.69
2017-05-26T06:30:14.807Z,-4.69
2017-05-26T06:31:08.319Z,-4.69
2017-05-26T06:32:09.304Z,-4.69
2017-05-26T06:33:09.808Z,-4.69
2017-05-26T06:34:03.366Z,-4.69
2017-05-26T06:34:52.377Z,-4.69
2017-05-26T06:35:51.876Z,-4.69
2017-05-26T06:36:45.958Z,-4.69
2017-05-26T06:37:39.847Z,-4.69
2017-05-26T06:38:27.810Z,-4.69
2017-05-26T06:39:10.804Z,-4.69
2017-05-26T06:40:04.322Z,-4.69
2017-05-26T06:40:58.344Z,-4.69
2017-05-26T06:41:41.291Z,-4.69
2017-05-26T06:42:28.888Z,-4.69
2017-05-26T06:43:17.818Z,-4.69
2017-05-26T06:44:12.404Z,-4.69
2017-05-26T06:45:05.889Z,-4.69
2017-05-26T06:46:00.885Z,-4.69
2017-05-26T06:47:00.384Z,-4.69
2017-05-26T06:47:54.379Z,-4.69
2017-05-26T06:48:49.345Z,-4.69
2017-05-26T06:49:48.962Z,-4.69
2017-05-26T06:50:42.901Z,-4.69
2017-05-26T06:51:37.892Z,-4.69
2017-05-26T06:52:31.454Z,-4.69
2017-05-26T06:53:20.482Z,-4.69
2017-05-26T06:54:14.908Z,-4.69
2017-05-26T06:55:03.497Z,-4.69
2017-05-26T06:55:52.008Z,-4.69
2017-05-26T06:56:57.609Z,-4.69
2017-05-26T06:57:51.589Z,-4.69
2017-05-26T06:58:46.675Z,-4.69
2017-05-26T06:59:46.137Z,-4.69
2017-05-26T07:00:40.050Z,-4.69
2017-05-26T07:01:34.097Z,-4.69
2017-05-26T07:02:28.989Z,-4.69
2017-05-26T07:03:28.556Z,-4.69
2017-05-26T07:04:23.531Z,-4.69
2017-05-26T07:05:18.055Z,-4.69
2017-05-26T07:06:11.628Z,-4.69
2017-05-26T07:06:59.574Z,-4.69
2017-05-26T07:07:54.579Z,-4.69
2017-05-26T07:08:48.090Z,-4.69
2017-05-26T07:09:42.163Z,-4.69
2017-05-26T07:10:36.088Z,-4.69
2017-05-26T07:11:31.039Z,-4.69
2017-05-26T07:12:30.629Z,-4.69
2017-05-26T07:13:25.571Z,-4.69
2017-05-26T07:14:20.090Z,-4.69
2017-05-26T07:15:07.687Z,-4.69
2017-05-26T07:16:08.570Z,-4.69
2017-05-26T07:16:57.234Z,-4.69
2017-05-26T07:17:56.711Z,-4.69
2017-05-26T07:18:50.734Z,-4.69
2017-05-26T07:19:33.689Z,-4.69
2017-05-26T07:20:27.199Z,-4.69
2017-05-26T07:21:28.179Z,-4.69
2017-05-26T07:22:21.754Z,-4.69
2017-05-26T07:23:15.742Z,-4.69
2017-05-26T07:24:04.704Z,-4.69
2017-05-26T07:25:04.252Z,-4.69
2017-05-26T07:25:59.387Z,-4.69
2017-05-26T07:26:52.740Z,-4.69
2017-05-26T07:27:52.743Z,-4.69
2017-05-26T07:28:40.721Z,-4.69
2017-05-26T07:29:29.712Z,-4.69
2017-05-26T07:30:23.268Z,-4.69
2017-05-26T07:31:06.235Z,-4.69
2017-05-26T07:32:05.780Z,-9.25
2017-05-26T07:32:53.840Z,-9.25
2017-05-26T07:33:41.745Z,-9.25
2017-05-26T07:34:24.793Z,-9.25
2017-05-26T07:35:18.248Z,-4.69
2017-05-26T07:36:06.292Z,-4.69
2017-05-26T07:37:00.237Z,-4.69
2017-05-26T07:37:55.252Z,-4.69
2017-05-26T07:38:43.784Z,-4.69
2017-05-26T07:39:37.283Z,-4.14
2017-05-26T07:40:37.308Z,-9.20
2017-05-26T07:41:31.315Z,-4.70
2017-05-26T07:42:25.341Z,-9.25
2017-05-26T07:43:25.278Z,-9.25
2017-05-26T07:44:19.191Z,-9.25
2017-05-26T07:45:14.157Z,-9.25
2017-05-26T07:46:08.751Z,-9.25
2017-05-26T07:47:03.275Z,-9.25
2017-05-26T07:47:56.822Z,-9.25
2017-05-26T07:48:52.095Z,-9.25
2017-05-26T07:49:45.348Z,-9.25
2017-05-26T07:50:40.278Z,-9.25
2017-05-26T07:51:33.904Z,-9.25
2017-05-26T07:52:22.813Z,-9.25
2017-05-26T07:53:11.396Z,-9.25
2017-05-26T07:54:05.235Z,-9.25
2017-05-26T07:54:58.931Z,-9.25
2017-05-26T07:55:52.888Z,-9.25
2017-05-26T07:56:46.868Z,-9.25
2017-05-26T07:57:36.021Z,-9.25
2017-05-26T07:58:30.378Z,-4.69
2017-05-26T07:59:25.056Z,-9.25
2017-05-26T08:00:24.472Z,-9.25
2017-05-26T08:01:18.411Z,-9.25
2017-05-26T08:02:13.383Z,-9.25
2017-05-26T08:03:07.006Z,-9.25
2017-05-26T08:04:02.002Z,-9.25
2017-05-26T08:05:01.786Z,-9.25
2017-05-26T08:05:56.467Z,-9.25
2017-05-26T08:06:51.009Z,-9.25
2017-05-26T08:07:45.552Z,-9.25
2017-05-26T08:08:40.114Z,-9.25
2017-05-26T08:09:34.656Z,-9.25
2017-05-26T08:10:29.193Z,-9.25
2017-05-26T08:11:17.745Z,-9.25
2017-05-26T08:12:11.318Z,-9.25
2017-05-26T08:13:11.316Z,-9.25
2017-05-26T08:14:00.277Z,-9.25
2017-05-26T08:14:59.766Z,-9.25
2017-05-26T08:15:54.615Z,-9.25
2017-05-26T08:16:53.725Z,-9.25
2017-05-26T08:17:53.728Z,-9.25
2017-05-26T08:18:48.669Z,-9.25
2017-05-26T08:19:48.241Z,-9.25
2017-05-26T08:20:42.178Z,-9.25
2017-05-26T08:21:31.238Z,-9.25
2017-05-26T08:22:18.744Z,-9.25
2017-05-26T08:23:18.748Z,-9.25
2017-05-26T08:24:07.740Z,-9.25
2017-05-26T08:25:07.233Z,-9.25
2017-05-26T08:26:02.223Z,-9.25
2017-05-26T08:26:55.826Z,-9.25
2017-05-26T08:27:49.762Z,-9.25
2017-05-26T08:28:37.836Z,-9.25
2017-05-26T08:29:31.733Z,-9.25
2017-05-26T08:30:26.708Z,-9.25
2017-05-26T08:31:26.223Z,-9.25
2017-05-26T08:32:09.266Z,-9.25
2017-05-26T08:33:02.774Z,-9.25
2017-05-26T08:33:56.769Z,-9.25
2017-05-26T08:34:45.785Z,-9.25
2017-05-26T08:35:45.275Z,-9.25
2017-05-26T08:36:34.260Z,-9.25
2017-05-26T08:37:22.795Z,-9.25
2017-05-26T08:38:17.308Z,-9.25
2017-05-26T08:39:10.882Z,-9.25
2017-05-26T08:40:05.872Z,-9.25
2017-05-26T08:41:06.394Z,-9.25
2017-05-26T08:41:53.941Z,-9.25
2017-05-26T08:42:47.938Z,-9.25
2017-05-26T08:43:36.927Z,-9.25
2017-05-26T08:44:30.441Z,-9.25
2017-05-26T08:45:18.458Z,-9.25
2017-05-26T08:46:01.449Z,-9.25
2017-05-26T08:46:50.010Z,-9.25
2017-05-26T08:47:43.564Z,-9.25
2017-05-26T08:48:38.538Z,-9.25
2017-05-26T08:49:38.044Z,-9.25
2017-05-26T08:50:27.027Z,-9.25
2017-05-26T08:51:20.576Z,-9.25
2017-05-26T08:52:14.553Z,-9.25
2017-05-26T08:53:14.491Z,-9.25
2017-05-26T08:54:03.541Z,-9.25
2017-05-26T08:55:03.070Z,-9.25
2017-05-26T08:55:57.052Z,-9.25
2017-05-26T08:56:52.020Z,-9.25
2017-05-26T08:57:45.620Z,-9.25
2017-05-26T08:58:39.562Z,-9.25
2017-05-26T08:59:27.821Z,-9.25
2017-05-26T09:00:22.523Z,-9.25
2017-05-26T09:01:22.149Z,-9.25
2017-05-26T09:02:10.034Z,-9.25
2017-05-26T09:02:58.051Z,-9.25
2017-05-26T09:03:57.992Z,-9.25
2017-05-26T09:04:53.337Z,-9.25
2017-05-26T09:05:47.526Z,-9.25
2017-05-26T09:06:36.139Z,-9.25
2017-05-26T09:07:35.693Z,-9.25
2017-05-26T09:08:30.608Z,-9.25
2017-05-26T09:09:25.206Z,-9.25
2017-05-26T09:10:25.765Z,-9.25
2017-05-26T09:11:25.284Z,-9.25
2017-05-26T09:12:20.271Z,-9.25
2017-05-26T09:13:08.778Z,-9.25
2017-05-26T09:14:09.314Z,-9.25
2017-05-26T09:14:57.933Z,-9.25
2017-05-26T09:15:57.434Z,-9.25
2017-05-26T09:16:45.427Z,-9.25
2017-05-26T09:17:39.433Z,-9.25
2017-05-26T09:18:28.357Z,-9.25
2017-05-26T09:19:22.968Z,-9.25
2017-05-26T09:20:17.463Z,-9.25
2017-05-26T09:21:12.132Z,-9.25
2017-05-26T09:22:06.549Z,-9.25
2017-05-26T09:23:06.164Z,-9.25
2017-05-26T09:23:55.122Z,-9.25
2017-05-26T09:24:54.646Z,-9.25
2017-05-26T09:25:43.635Z,-9.25
2017-05-26T09:26:32.271Z,-9.25
2017-05-26T09:27:25.687Z,-9.25
2017-05-26T09:28:13.716Z,-9.25
2017-05-26T09:29:02.704Z,-9.25
2017-05-26T09:29:51.313Z,-9.25
2017-05-26T09:30:44.809Z,-9.25
2017-05-26T09:31:40.069Z,-9.25
2017-05-26T09:32:33.350Z,-9.25
2017-05-26T09:33:33.256Z,-9.25
2017-05-26T09:34:22.287Z,-9.25
2017-05-26T09:35:16.850Z,-9.25
2017-05-26T09:36:10.362Z,-9.25
2017-05-26T09:37:04.742Z,-9.25
2017-05-26T09:37:53.360Z,-9.25
2017-05-26T09:38:41.943Z,-9.25
2017-05-26T09:39:35.527Z,-9.25
2017-05-26T09:40:30.464Z,-9.25
2017-05-26T09:41:24.994Z,-9.25
2017-05-26T09:42:18.794Z,-9.25
2017-05-26T09:43:06.471Z,-9.25
2017-05-26T09:43:55.485Z,-9.25
2017-05-26T09:44:44.045Z,-9.25
2017-05-26T09:45:31.609Z,-9.25
2017-05-26T09:46:19.581Z,-9.25
2017-05-26T09:47:13.561Z,-9.25
2017-05-26T09:48:02.549Z,-9.25
2017-05-26T09:48:56.077Z,-9.25
2017-05-26T09:49:39.075Z,-9.25
2017-05-26T09:50:38.623Z,-9.25
2017-05-26T09:51:33.590Z,-9.25
2017-05-26T09:52:28.127Z,-9.25
2017-05-26T09:53:21.758Z,-9.25
2017-05-26T09:54:15.648Z,-9.25
2017-05-26T09:55:09.649Z,-9.25
2017-05-26T09:56:03.640Z,-9.25
2017-05-26T09:56:58.722Z,-9.25
2017-05-26T09:57:58.209Z,-9.25
2017-05-26T09:58:52.209Z,-9.25
2017-05-26T09:59:46.166Z,-9.25
2017-05-26T10:00:35.146Z,-9.25
2017-05-26T10:01:28.665Z,-9.25
2017-05-26T10:02:22.648Z,-9.25
2017-05-26T10:03:22.646Z,-9.25
2017-05-26T10:04:10.675Z,-9.25
2017-05-26T10:05:10.617Z,-9.25
2017-05-26T10:05:59.592Z,-9.25
2017-05-26T10:07:00.157Z,-9.25
2017-05-26T10:07:53.701Z,-9.25
2017-05-26T10:08:48.713Z,-9.25
2017-05-26T10:09:42.285Z,-9.25
2017-05-26T10:10:36.213Z,-9.25
2017-05-26T10:11:24.165Z,-9.25
2017-05-26T10:12:18.188Z,-9.25
2017-05-26T10:13:07.177Z,-9.25
2017-05-26T10:14:06.716Z,-9.25
2017-05-26T10:15:00.724Z,-9.25
2017-05-26T10:15:55.694Z,-9.25
2017-05-26T10:17:01.247Z,-9.25
2017-05-26T10:17:44.261Z,-9.25
2017-05-26T10:18:38.755Z,-9.25
2017-05-26T10:19:32.297Z,-9.25
2017-05-26T10:20:21.333Z,-9.25
2017-05-26T10:21:15.849Z,-9.25
2017-05-26T10:22:10.408Z,-9.25
2017-05-26T10:23:09.959Z,-9.25
2017-05-26T10:23:58.930Z,-9.25
2017-05-26T10:24:58.484Z,-9.25
2017-05-26T10:25:47.618Z,-9.25
2017-05-26T10:26:36.034Z,-9.25
2017-05-26T10:27:24.598Z,-9.25
2017-05-26T10:28:24.167Z,-9.25
2017-05-26T10:29:18.139Z,-9.25
2017-05-26T10:30:07.125Z,-9.25
2017-05-26T10:31:00.677Z,-9.25
2017-05-26T10:32:00.626Z,-9.25
2017-05-26T10:32:49.593Z,-9.25
2017-05-26T10:33:43.196Z,-9.25
2017-05-26T10:34:26.210Z,-9.25
2017-05-26T10:35:20.664Z,-9.25
2017-05-26T10:36:08.357Z,-9.25
2017-05-26T10:37:02.241Z,-9.25
2017-05-26T10:37:56.241Z,-9.25
2017-05-26T10:38:50.210Z,-9.25
2017-05-26T10:39:50.196Z,-9.25
2017-05-26T10:40:39.175Z,-9.25
2017-05-26T10:41:39.073Z,-9.25
2017-05-26T10:42:26.713Z,-9.25
2017-05-26T10:43:20.702Z,-9.25
2017-05-26T10:44:08.690Z,-9.25
2017-05-26T10:44:57.697Z,-9.25
2017-05-26T10:45:45.203Z,-9.25
2017-05-26T10:46:45.201Z,-9.25
2017-05-26T10:47:39.295Z,-9.25
2017-05-26T10:48:34.172Z,-9.25
2017-05-26T10:49:27.746Z,-9.25
2017-05-26T10:50:27.708Z,-9.25
2017-05-26T10:51:22.683Z,-9.25
2017-05-26T10:52:17.208Z,-9.25
2017-05-26T10:53:11.793Z,-9.25
2017-05-26T10:54:06.326Z,-9.25
2017-05-26T10:55:05.882Z,-9.25
2017-05-26T10:56:00.851Z,-9.25
2017-05-26T10:56:55.415Z,-9.25
2017-05-26T10:57:55.044Z,-9.25
2017-05-26T10:58:48.940Z,-9.25
2017-05-26T10:59:43.940Z,-9.25
2017-05-26T11:00:37.467Z,-9.25
2017-05-26T11:01:32.463Z,-9.25
2017-05-26T11:02:20.996Z,-9.25
2017-05-26T11:03:09.564Z,-9.25
2017-05-26T11:04:03.083Z,-9.25
2017-05-26T11:04:52.057Z,-9.25
2017-05-26T11:05:40.626Z,-9.25
2017-05-26T11:06:35.140Z,-9.25
2017-05-26T11:07:34.687Z,-9.25
2017-05-26T11:08:22.964Z,-9.25
2017-05-26T11:09:16.760Z,-9.25
2017-05-26T11:10:05.671Z,-9.25
2017-05-26T11:11:05.221Z,-9.25
2017-05-26T11:11:59.195Z,-9.25
2017-05-26T11:12:54.204Z,-86.87
2017-05-26T11:13:42.056Z,-9.25
2017-05-26T11:14:41.708Z,-9.25
2017-05-26T11:15:35.690Z,-9.25
2017-05-26T11:16:29.686Z,-9.25
2017-05-26T11:17:12.657Z,-9.25
2017-05-26T11:18:06.244Z,-9.25
2017-05-26T11:18:55.470Z,-9.25
2017-05-26T11:19:49.748Z,-9.25
2017-05-26T11:20:49.323Z,-9.25
2017-05-26T11:21:49.280Z,-9.25
2017-05-26T11:22:44.311Z,-9.25
2017-05-26T11:23:32.804Z,-9.25
2017-05-26T11:24:21.692Z,-9.25
2017-05-26T11:25:14.883Z,-9.25
2017-05-26T11:26:08.879Z,-9.25
2017-05-26T11:26:57.899Z,-9.25
2017-05-26T11:28:03.402Z,-9.25
2017-05-26T11:28:58.417Z,-9.25
2017-05-26T11:29:46.002Z,-9.25
2017-05-26T11:30:34.996Z,-9.25
2017-05-26T11:31:29.516Z,-9.25
2017-05-26T11:32:24.115Z,-9.25
2017-05-26T11:33:18.646Z,-9.25
2017-05-26T11:34:13.206Z,-9.25
2017-05-26T11:35:01.738Z,-82.61
2017-05-26T11:35:49.269Z,-9.25
2017-05-26T11:36:43.281Z,-9.25
2017-05-26T11:37:32.275Z,-9.25
2017-05-26T11:38:31.794Z,-9.25
2017-05-26T11:39:31.748Z,-9.25
2017-05-26T11:40:25.770Z,-9.25
2017-05-26T11:41:25.701Z,-9.25